Time;durP1;ratioP1;P1;durP2;ratioP2;P2;SDS_P1;SDS_P2;PMS_P1;PMS_P2;Temp;Humidity;BMP_temperature;BMP_pressure;BME280_temperature;BME280_humidity;BME280_pressure;Samples;Min_cycle;Max_cycle;Signal;HPM_P1;HPM_P2
2022/07/27 00:00:19;;;;;;;2.97;1.38;;;;;;;12.81;75.77;101920.13;5026201;28;20543;-65
2022/07/27 00:02:45;;;;;;;4.13;1.13;;;;;;;12.76;76.21;101922.28;5035664;28;20534;-67
2022/07/27 00:05:10;;;;;;;4.03;1.15;;;;;;;12.73;76.38;101917.91;5046747;28;20021;-67
2022/07/27 00:07:36;;;;;;;4.25;1.10;;;;;;;12.71;76.29;101918.97;5046695;28;20140;-66
2022/07/27 00:10:02;;;;;;;2.55;1.13;;;;;;;12.66;76.21;101913.81;5041047;28;20045;-67
2022/07/27 00:12:27;;;;;;;2.10;1.05;;;;;;;12.61;75.77;101915.09;5032749;28;20033;-65
2022/07/27 00:14:53;;;;;;;3.80;0.80;;;;;;;12.57;75.91;101914.41;5030777;28;20049;-66
2022/07/27 00:17:22;;;;;;;2.05;0.95;;;;;;;12.54;76.14;101924.63;5026219;28;20488;-64
2022/07/27 00:19:48;;;;;;;1.85;0.77;;;;;;;12.48;77.42;101920.44;5026790;28;20059;-66
2022/07/27 00:22:14;;;;;;;2.58;0.85;;;;;;;12.44;77.21;101922.47;5026276;28;20065;-66
2022/07/27 00:24:39;;;;;;;3.83;1.10;;;;;;;12.41;77.21;101916.38;5026785;28;20065;-67
2022/07/27 00:27:06;;;;;;;4.65;1.30;;;;;;;12.36;77.41;101921.25;5029239;28;20041;-66
2022/07/27 00:29:31;;;;;;;4.40;1.20;;;;;;;12.32;77.37;101926.00;5029881;28;20026;-66
2022/07/27 00:31:56;;;;;;;1.27;1.00;;;;;;;12.30;76.89;101927.06;5013077;28;20037;-66
2022/07/27 00:34:22;;;;;;;5.57;1.10;;;;;;;12.25;76.62;101917.31;5041403;28;20037;-66
2022/07/27 00:36:47;;;;;;;2.38;1.02;;;;;;;12.23;76.57;101926.56;5049747;28;20053;-66
2022/07/27 00:39:12;;;;;;;2.90;1.20;;;;;;;12.17;76.97;101914.19;5049820;28;20033;-66
2022/07/27 00:41:38;;;;;;;3.60;1.00;;;;;;;12.14;76.66;101917.09;5035958;28;20095;-69
2022/07/27 00:44:05;;;;;;;1.23;1.10;;;;;;;12.14;77.26;101918.97;5029723;28;20031;-66
2022/07/27 00:46:32;;;;;;;2.13;1.10;;;;;;;12.09;77.22;101918.38;5033948;28;20550;-66
2022/07/27 00:48:58;;;;;;;1.35;1.08;;;;;;;12.07;77.10;101917.56;5028006;28;20025;-67
2022/07/27 00:51:24;;;;;;;2.70;1.10;;;;;;;12.03;77.64;101916.00;5027343;28;20037;-66
2022/07/27 00:53:51;;;;;;;3.08;1.30;;;;;;;12.00;76.90;101915.22;5027628;28;20742;-67
2022/07/27 00:56:17;;;;;;;2.00;1.23;;;;;;;11.98;77.39;101921.72;5027689;28;20037;-65
2022/07/27 00:58:47;;;;;;;4.18;1.30;;;;;;;11.89;78.58;101916.84;5026908;28;20033;-66
2022/07/27 01:01:13;;;;;;;3.03;0.90;;;;;;;11.87;77.88;101914.22;5027021;28;20426;-66
2022/07/27 01:03:38;;;;;;;2.70;1.30;;;;;;;11.85;78.14;101915.31;5027571;28;20036;-66
2022/07/27 01:06:04;;;;;;;3.55;1.10;;;;;;;11.84;77.30;101910.78;5025189;28;20072;-66
2022/07/27 01:08:29;;;;;;;4.32;1.60;;;;;;;11.80;77.62;101912.81;5027658;28;20044;-67
2022/07/27 01:10:56;;;;;;;3.22;1.55;;;;;;;11.77;77.55;101918.44;5027818;28;20026;-67
2022/07/27 01:13:23;;;;;;;2.88;1.30;;;;;;;11.74;77.27;101918.63;5027461;28;20048;-66
2022/07/27 01:15:50;;;;;;;1.73;1.40;;;;;;;11.70;77.71;101914.31;5026572;28;20033;-67
2022/07/27 01:18:30;;;;;;;3.78;1.48;;;;;;;11.65;77.27;101914.59;5041302;28;20092;-67
2022/07/27 01:20:57;;;;;;;4.53;1.45;;;;;;;11.59;77.72;101920.41;5026235;28;20045;-68
2022/07/27 01:23:24;;;;;;;4.03;1.05;;;;;;;11.55;77.52;101915.25;5043062;28;20119;-68
2022/07/27 01:25:49;;;;;;;3.33;1.33;;;;;;;11.53;77.25;101923.50;5026814;28;20025;-66
2022/07/27 01:28:14;;;;;;;2.75;1.10;;;;;;;11.48;77.39;101920.19;5034421;28;20047;-67
2022/07/27 01:30:40;;;;;;;2.28;1.25;;;;;;;11.44;77.30;101913.16;5026462;28;20485;-67
2022/07/27 01:33:07;;;;;;;4.40;1.77;;;;;;;11.44;78.44;101929.50;5026939;28;20405;-67
2022/07/27 01:35:33;;;;;;;3.88;1.65;;;;;;;11.37;77.94;101923.53;5025957;28;20128;-68
2022/07/27 01:37:59;;;;;;;3.67;1.30;;;;;;;11.33;78.83;101924.69;5039909;28;20053;-66
2022/07/27 01:40:24;;;;;;;2.38;1.20;;;;;;;11.30;78.47;101921.25;5027556;28;20441;-65
2022/07/27 01:42:50;;;;;;;3.33;1.83;;;;;;;11.31;78.70;101923.88;5037007;28;20037;-66
2022/07/27 01:45:15;;;;;;;3.70;1.48;;;;;;;11.30;78.25;101921.25;5026062;28;20354;-68
2022/07/27 01:47:41;;;;;;;1.98;1.55;;;;;;;11.29;79.08;101911.34;5026310;28;20045;-66
2022/07/27 01:50:07;;;;;;;3.33;1.63;;;;;;;11.30;79.29;101915.81;5025580;28;20543;-66
2022/07/27 01:52:32;;;;;;;2.42;1.98;;;;;;;11.28;79.17;101912.28;5026051;28;20033;-66
2022/07/27 01:54:57;;;;;;;4.13;1.63;;;;;;;11.25;79.34;101905.19;5026195;28;20412;-66
2022/07/27 01:57:23;;;;;;;3.38;1.88;;;;;;;11.23;78.85;101907.97;5025048;28;20041;-66
2022/07/27 01:59:48;;;;;;;2.55;1.60;;;;;;;11.21;78.61;101911.78;5040011;28;20073;-67
2022/07/27 02:02:15;;;;;;;2.75;1.60;;;;;;;11.17;78.77;101910.19;5025812;28;20067;-66
2022/07/27 02:04:41;;;;;;;3.30;1.52;;;;;;;11.15;78.70;101914.88;5025491;28;20068;-68
2022/07/27 02:07:06;;;;;;;5.95;1.60;;;;;;;11.10;78.56;101909.69;5025939;28;20474;-66
2022/07/27 02:09:32;;;;;;;2.67;1.50;;;;;;;11.05;78.69;101905.44;5024484;28;20071;-65
2022/07/27 02:14:41;;;;;;;3.30;1.40;;;;;;;10.96;78.02;101910.47;5025680;28;20042;-66
2022/07/27 02:17:07;;;;;;;4.85;1.90;;;;;;;10.92;78.81;101903.44;5025438;28;20111;-65
2022/07/27 02:19:32;;;;;;;1.98;1.63;;;;;;;10.90;78.33;101902.63;5025185;28;20379;-66
2022/07/27 02:21:57;;;;;;;2.65;1.52;;;;;;;10.90;78.66;101905.34;5025917;28;20549;-66
2022/07/27 02:24:23;;;;;;;4.28;1.58;;;;;;;10.88;78.51;101901.84;5025986;28;20553;-65
2022/07/27 02:26:48;;;;;;;2.95;1.58;;;;;;;10.86;79.15;101897.44;5025887;28;20041;-66
2022/07/27 02:29:14;;;;;;;4.90;2.05;;;;;;;10.85;79.57;101896.56;5025584;28;20373;-65
2022/07/27 02:31:39;;;;;;;4.80;2.13;;;;;;;10.82;80.34;101906.75;5030452;28;20053;-66
2022/07/27 02:34:04;;;;;;;2.88;1.65;;;;;;;10.81;79.29;101903.16;5025484;28;20102;-65
2022/07/27 02:36:30;;;;;;;5.75;1.67;;;;;;;10.78;79.03;101897.91;5023299;28;20136;-66
2022/07/27 02:38:56;;;;;;;2.55;2.00;;;;;;;10.76;79.09;101898.94;5026273;28;20049;-65
2022/07/27 02:41:22;;;;;;;4.78;1.63;;;;;;;10.75;79.00;101897.19;5026449;28;20140;-65
2022/07/27 02:43:47;;;;;;;5.35;2.30;;;;;;;10.70;78.85;101897.44;5025024;28;20513;-66
2022/07/27 02:46:13;;;;;;;12.60;2.47;;;;;;;10.68;79.93;101893.94;5039377;28;20099;-66
2022/07/27 02:48:38;;;;;;;4.70;1.95;;;;;;;10.66;79.66;101893.13;5025157;28;20075;-67
2022/07/27 02:51:04;;;;;;;3.40;1.88;;;;;;;10.65;79.83;101896.84;5023086;28;20029;-65
2022/07/27 02:53:30;;;;;;;2.75;2.03;;;;;;;10.62;79.57;101895.16;5025760;28;20030;-67
2022/07/27 02:55:56;;;;;;;2.75;1.90;;;;;;;10.63;79.27;101890.56;5026204;28;20087;-66
2022/07/27 02:58:22;;;;;;;5.20;2.30;;;;;;;10.60;80.03;101885.31;5025299;28;20041;-66
2022/07/27 03:00:47;;;;;;;8.38;2.50;;;;;;;10.62;79.50;101888.81;5024428;28;20079;-65
2022/07/27 03:03:13;;;;;;;3.42;1.90;;;;;;;10.58;79.72;101888.09;5034686;28;20037;-66
2022/07/27 03:05:38;;;;;;;6.38;2.33;;;;;;;10.56;78.82;101890.06;5041362;28;20025;-67
2022/07/27 03:08:04;;;;;;;3.92;2.05;;;;;;;10.54;79.65;101885.66;5025371;28;20034;-66
2022/07/27 03:10:30;;;;;;;3.15;1.90;;;;;;;10.48;79.21;101897.75;5039521;28;20029;-69
2022/07/27 03:12:56;;;;;;;3.38;1.63;;;;;;;10.42;79.24;101893.53;5025659;28;20396;-66
2022/07/27 03:15:21;;;;;;;3.75;2.08;;;;;;;10.38;79.94;101899.22;5025378;28;20496;-66
2022/07/27 03:17:46;;;;;;;4.43;2.15;;;;;;;10.35;79.13;101903.00;5024473;28;20457;-65
2022/07/27 03:20:12;;;;;;;3.95;1.83;;;;;;;10.31;78.63;101906.84;5024656;28;20037;-66
2022/07/27 03:22:37;;;;;;;4.03;1.80;;;;;;;10.26;80.18;101903.50;5024418;28;20091;-65
2022/07/27 03:25:03;;;;;;;3.28;2.22;;;;;;;10.25;80.72;101904.44;5024789;28;20068;-65
2022/07/27 03:27:29;;;;;;;3.53;2.25;;;;;;;10.25;80.02;101907.16;5025115;28;20493;-66
2022/07/27 03:29:55;;;;;;;7.07;2.20;;;;;;;10.25;79.86;101906.28;5025161;28;20040;-66
2022/07/27 03:32:20;;;;;;;5.57;1.70;;;;;;;10.25;79.50;101904.44;5024247;28;20505;-66
2022/07/27 03:34:45;;;;;;;2.38;1.70;;;;;;;10.25;79.42;101900.84;5038237;28;20129;-66
2022/07/27 03:37:11;;;;;;;3.90;2.40;;;;;;;10.25;80.85;101898.13;5039203;28;20113;-66
2022/07/27 03:39:36;;;;;;;3.08;2.08;;;;;;;10.22;80.18;101900.03;5025500;28;20045;-65
2022/07/27 03:42:02;;;;;;;3.33;2.30;;;;;;;10.21;80.45;101898.28;5025129;28;20084;-65
2022/07/27 03:44:28;;;;;;;4.18;2.50;;;;;;;10.23;80.36;101900.91;5024232;28;20045;-65
2022/07/27 03:46:53;;;;;;;4.43;2.83;;;;;;;10.22;80.15;101902.75;5024547;28;20041;-66
2022/07/27 03:49:18;;;;;;;5.13;2.50;;;;;;;10.25;80.70;101907.16;5022935;28;20048;-66
2022/07/27 03:51:44;;;;;;;4.82;2.30;;;;;;;10.23;80.78;101901.78;5024261;28;20125;-65
2022/07/27 03:54:09;;;;;;;6.13;2.40;;;;;;;10.24;80.48;101905.41;5023240;28;20038;-66
2022/07/27 03:56:35;;;;;;;4.80;2.30;;;;;;;10.28;81.49;101911.56;5040227;28;20041;-67
2022/07/27 03:59:00;;;;;;;2.92;1.95;;;;;;;10.29;81.35;101899.72;5024276;28;20049;-67
2022/07/27 04:01:25;;;;;;;2.88;2.10;;;;;;;10.31;81.66;101911.44;5024858;28;20373;-69
2022/07/27 04:03:51;;;;;;;5.35;2.60;;;;;;;10.37;81.60;101911.09;5030377;28;20485;-66
2022/07/27 04:06:16;;;;;;;5.30;2.92;;;;;;;10.42;81.68;101904.41;5025555;28;20457;-66
2022/07/27 04:08:42;;;;;;;2.75;2.05;;;;;;;10.46;81.51;101908.72;5027456;28;20029;-66
2022/07/27 04:11:07;;;;;;;6.07;2.20;;;;;;;10.52;81.64;101909.34;5040641;28;20109;-66
2022/07/27 04:13:32;;;;;;;5.03;1.92;;;;;;;10.57;81.12;101913.56;5033172;28;20033;-66
2022/07/27 04:15:58;;;;;;;3.78;2.08;;;;;;;10.62;81.61;101910.59;5027559;28;20041;-65
2022/07/27 04:18:23;;;;;;;2.53;1.80;;;;;;;10.64;82.03;101911.41;5027181;28;20105;-67
2022/07/27 04:20:49;;;;;;;3.88;2.20;;;;;;;10.68;81.98;101911.16;5027125;28;20046;-65
2022/07/27 04:23:14;;;;;;;4.70;2.20;;;;;;;10.74;81.52;101904.47;5026611;28;20476;-65
2022/07/27 04:25:39;;;;;;;5.90;2.17;;;;;;;10.80;82.09;101914.13;5028182;28;20055;-65
2022/07/27 04:28:05;;;;;;;3.53;2.30;;;;;;;10.84;81.55;101913.00;5027907;28;20112;-66
2022/07/27 04:30:30;;;;;;;2.63;2.05;;;;;;;10.89;81.20;101910.91;5027573;28;20044;-68
2022/07/27 04:32:56;;;;;;;4.35;2.42;;;;;;;10.95;82.25;101899.66;5028037;28;20048;-68
2022/07/27 04:35:21;;;;;;;3.58;2.40;;;;;;;10.98;82.11;101916.69;5027786;28;20476;-66
2022/07/27 04:37:47;;;;;;;4.57;2.78;;;;;;;11.04;81.95;101910.00;5026558;28;20092;-68
2022/07/27 04:40:12;;;;;;;5.60;2.50;;;;;;;11.14;81.63;101919.41;5027737;28;20037;-66
2022/07/27 04:42:38;;;;;;;4.10;2.30;;;;;;;11.24;81.98;101922.50;5027917;28;20068;-65
2022/07/27 04:45:04;;;;;;;3.20;2.30;;;;;;;11.32;81.78;101913.88;5041741;28;20660;-65
2022/07/27 04:47:29;;;;;;;4.32;2.40;;;;;;;11.40;82.74;101923.34;5026810;28;20029;-65
2022/07/27 04:49:55;;;;;;;4.30;2.08;;;;;;;11.42;81.88;101926.88;5027616;28;20043;-66
2022/07/27 04:52:20;;;;;;;5.75;2.13;;;;;;;11.42;81.14;101918.72;5032880;28;20029;-66
2022/07/27 04:54:50;;;;;;;4.05;2.22;;;;;;;11.42;81.12;101920.53;5045329;28;20083;-66
2022/07/27 04:57:15;;;;;;;5.22;2.10;;;;;;;11.41;81.38;101925.09;5040783;28;20036;-66
2022/07/27 04:59:41;;;;;;;3.13;1.73;;;;;;;11.42;81.00;101935.06;5042753;28;20408;-66
2022/07/27 05:02:06;;;;;;;2.70;1.77;;;;;;;11.41;81.27;101932.41;5042421;28;20373;-67
2022/07/27 05:04:31;;;;;;;4.07;1.80;;;;;;;11.38;81.65;101930.75;5046530;28;20692;-67
2022/07/27 05:06:57;;;;;;;7.15;2.30;;;;;;;11.41;81.71;101935.13;5047088;28;20117;-66
2022/07/27 05:09:22;;;;;;;3.60;2.25;;;;;;;11.38;82.22;101927.16;5040520;28;20121;-65
2022/07/27 05:11:47;;;;;;;3.58;2.25;;;;;;;11.40;82.61;101930.66;5028147;28;20075;-68
2022/07/27 05:14:13;;;;;;;2.85;2.17;;;;;;;11.42;82.08;101936.88;5025034;28;20041;-66
2022/07/27 05:16:39;;;;;;;5.95;2.58;;;;;;;11.41;82.64;101936.00;5040256;28;20037;-66
2022/07/27 05:19:04;;;;;;;4.82;1.95;;;;;;;11.45;81.69;101943.03;5044513;28;20116;-67
2022/07/27 05:21:30;;;;;;;4.70;2.15;;;;;;;11.46;81.85;101941.19;5044004;28;20467;-67
2022/07/27 05:23:55;;;;;;;2.65;2.10;;;;;;;11.46;82.15;101947.50;5028905;28;20127;-66
2022/07/27 05:26:21;;;;;;;4.55;2.05;;;;;;;11.50;81.87;101948.22;5025011;28;20515;-66
2022/07/27 05:28:47;;;;;;;4.68;3.00;;;;;;;11.54;83.15;101948.91;5036590;28;20108;-66
2022/07/27 05:31:12;;;;;;;5.13;2.50;;;;;;;11.58;82.71;101948.66;5032393;28;20108;-67
2022/07/27 05:33:37;;;;;;;5.55;3.03;;;;;;;11.62;83.59;101954.81;5027779;28;20052;-66
2022/07/27 05:36:03;;;;;;;4.63;3.33;;;;;;;11.68;84.05;101960.75;5024085;28;20059;-66
2022/07/27 05:38:28;;;;;;;4.72;3.15;;;;;;;11.74;83.69;101954.06;5026985;28;20068;-66
2022/07/27 05:40:54;;;;;;;5.80;3.28;;;;;;;11.78;83.33;101958.34;5026951;28;20041;-66
2022/07/27 05:43:19;;;;;;;6.40;4.13;;;;;;;11.79;84.25;101957.38;5032880;28;20032;-66
2022/07/27 05:45:44;;;;;;;6.68;2.97;;;;;;;11.86;83.51;101957.94;5026396;28;20143;-66
2022/07/27 05:48:10;;;;;;;4.68;3.22;;;;;;;11.89;83.63;101961.38;5026810;28;20041;-67
2022/07/27 05:50:35;;;;;;;6.20;3.35;;;;;;;11.94;83.57;101942.88;5025294;28;20496;-66
2022/07/27 05:53:01;;;;;;;7.30;3.30;;;;;;;12.01;81.95;101951.56;5042171;28;20579;-66
2022/07/27 05:55:26;;;;;;;10.00;3.83;;;;;;;12.06;84.21;101959.47;5026614;28;20079;-67
2022/07/27 05:57:52;;;;;;;7.63;3.33;;;;;;;12.11;81.97;101960.06;5023544;28;20068;-67
2022/07/27 06:00:17;;;;;;;6.63;3.35;;;;;;;12.17;82.86;101960.56;5037998;28;20041;-65
2022/07/27 06:02:43;;;;;;;8.82;3.28;;;;;;;12.23;83.50;101964.78;5034335;28;20040;-66
2022/07/27 06:05:09;;;;;;;5.80;3.00;;;;;;;12.30;83.81;101962.53;5045580;28;20043;-65
2022/07/27 06:10:18;;;;;;;6.95;3.42;;;;;;;12.41;82.43;101970.94;5034609;28;20063;-67
2022/07/27 06:12:45;;;;;;;7.40;2.97;;;;;;;12.44;82.01;101963.41;5042013;28;20465;-66
2022/07/27 06:15:12;;;;;;;7.25;3.28;;;;;;;12.49;82.64;101965.88;5026044;28;20536;-66
2022/07/27 06:17:37;;;;;;;8.55;3.28;;;;;;;12.57;83.43;101970.84;5025498;28;20104;-68
2022/07/27 06:20:05;;;;;;;7.10;3.15;;;;;;;12.61;83.23;101966.97;5040837;28;20144;-65
2022/07/27 06:22:30;;;;;;;7.03;2.70;;;;;;;12.68;82.60;101974.69;5024111;28;20106;-69
2022/07/27 06:24:56;;;;;;;7.80;2.70;;;;;;;12.75;81.42;101973.31;5024267;28;20120;-69
2022/07/27 06:27:21;;;;;;;10.05;2.55;;;;;;;12.82;80.80;101962.84;5026264;28;20029;-68
2022/07/27 06:29:47;;;;;;;4.53;2.33;;;;;;;12.87;82.00;101971.66;5025425;28;20036;-66
2022/07/27 06:32:12;;;;;;;4.30;2.20;;;;;;;12.94;82.93;101970.28;5025282;28;20427;-66
2022/07/27 06:34:37;;;;;;;7.72;2.80;;;;;;;13.06;82.53;101965.00;5036649;28;20526;-65
2022/07/27 06:37:03;;;;;;;5.38;2.33;;;;;;;13.19;81.11;101965.94;5045173;28;20052;-66
2022/07/27 06:39:28;;;;;;;4.43;1.65;;;;;;;13.29;80.46;101972.59;5036858;28;20037;-66
2022/07/27 06:41:54;;;;;;;1.58;1.38;;;;;;;13.41;80.21;101970.91;5027403;28;20045;-67
2022/07/27 06:44:20;;;;;;;4.45;1.42;;;;;;;13.52;78.70;101962.84;5033300;28;20065;-66
2022/07/27 06:46:45;;;;;;;6.35;2.05;;;;;;;13.59;78.72;101972.41;5033735;28;20033;-67
2022/07/27 06:49:10;;;;;;;2.55;1.55;;;;;;;13.67;78.12;101974.66;5025478;28;20111;-65
2022/07/27 06:51:37;;;;;;;4.00;1.50;;;;;;;13.81;77.69;101976.44;5024821;28;20033;-66
2022/07/27 06:54:03;;;;;;;3.17;1.33;;;;;;;13.91;76.56;101974.81;5025149;28;20049;-66
2022/07/27 06:56:29;;;;;;;5.63;1.30;;;;;;;14.00;76.13;101977.81;5025482;28;20025;-67
2022/07/27 06:58:55;;;;;;;5.68;1.45;;;;;;;14.09;75.65;101973.56;5024036;28;20094;-66
2022/07/27 07:01:21;;;;;;;3.85;1.30;;;;;;;14.16;76.34;101979.47;5039428;28;20033;-66
2022/07/27 07:03:46;;;;;;;8.95;1.83;;;;;;;14.20;77.02;101970.06;5025379;28;20481;-65
2022/07/27 07:06:12;;;;;;;3.50;1.20;;;;;;;14.22;77.15;101979.94;5024330;28;20807;-66
2022/07/27 07:08:38;;;;;;;6.35;1.63;;;;;;;14.28;75.46;101984.97;5025449;28;20393;-66
2022/07/27 07:11:03;;;;;;;5.50;1.48;;;;;;;14.42;74.18;101983.13;5036698;28;20381;-69
2022/07/27 07:13:29;;;;;;;3.53;1.15;;;;;;;14.60;75.27;101992.81;5031924;28;20037;-66
2022/07/27 07:15:55;;;;;;;5.88;1.70;;;;;;;14.72;73.40;101989.19;5025501;28;20036;-66
2022/07/27 07:18:20;;;;;;;6.10;1.38;;;;;;;14.88;72.67;101983.50;5024909;28;20042;-66
2022/07/27 07:20:46;;;;;;;7.13;1.30;;;;;;;15.20;70.50;101986.63;5024106;28;20033;-66
2022/07/27 07:23:11;;;;;;;7.38;1.40;;;;;;;15.56;72.57;101988.47;5025210;28;20033;-66
2022/07/27 07:25:37;;;;;;;5.88;1.20;;;;;;;15.81;69.97;101989.41;5025228;28;20052;-67
2022/07/27 07:28:03;;;;;;;4.97;1.52;;;;;;;15.93;67.82;101993.06;5024997;28;20090;-66
2022/07/27 07:30:29;;;;;;;4.55;1.40;;;;;;;15.94;69.96;101990.19;5024657;28;20053;-68
2022/07/27 07:32:55;;;;;;;8.82;1.40;;;;;;;16.16;67.73;101992.19;5023798;28;20041;-66
2022/07/27 07:35:21;;;;;;;7.05;1.40;;;;;;;16.31;67.72;101981.84;5024658;28;20516;-66
2022/07/27 07:37:46;;;;;;;3.63;2.00;;;;;;;16.27;68.06;101994.06;5043120;28;20058;-68
2022/07/27 07:40:11;;;;;;;4.60;1.40;;;;;;;16.24;67.55;101989.72;5027372;28;20071;-67
2022/07/27 07:43:06;;;;;;;7.13;1.60;;;;;;;16.38;68.92;101993.25;5029307;28;20396;-66
2022/07/27 07:45:34;;;;;;;4.43;1.70;;;;;;;16.53;66.55;101997.53;5018406;28;20124;-66
2022/07/27 07:47:59;;;;;;;3.05;1.50;;;;;;;16.72;66.78;102005.22;5010171;28;20041;-68
2022/07/27 07:50:26;;;;;;;3.78;1.50;;;;;;;16.99;66.06;101999.38;5027408;28;20037;-66
2022/07/27 07:52:52;;;;;;;6.28;1.77;;;;;;;17.14;64.36;101986.25;5028000;28;20041;-67
2022/07/27 07:55:20;;;;;;;4.68;1.70;;;;;;;17.19;63.41;101995.84;5025863;28;20029;-66
2022/07/27 07:57:45;;;;;;;4.47;1.63;;;;;;;17.24;61.72;101999.09;5027687;28;20090;-65
2022/07/27 08:00:11;;;;;;;4.82;1.60;;;;;;;17.29;65.21;101993.22;5027355;28;20029;-67
2022/07/27 08:02:50;;;;;;;4.15;1.02;;;;;;;17.28;61.96;101997.84;5026981;28;20045;-65
2022/07/27 08:05:16;;;;;;;6.45;1.33;;;;;;;17.43;64.55;102006.72;5027142;28;20813;-68
2022/07/27 08:07:43;;;;;;;2.47;1.10;;;;;;;17.44;59.07;102008.47;5027136;28;20021;-67
2022/07/27 08:10:10;;;;;;;8.35;1.30;;;;;;;17.39;61.76;102012.59;5027344;28;20112;-66
2022/07/27 08:12:36;;;;;;;2.35;0.90;;;;;;;17.23;59.69;102016.63;5028918;28;20037;-66
2022/07/27 08:15:03;;;;;;;2.80;1.15;;;;;;;17.12;60.58;102013.00;5027149;28;20033;-67
2022/07/27 08:17:28;;;;;;;6.82;1.30;;;;;;;17.14;62.01;102019.25;5026515;28;20034;-66
2022/07/27 08:19:54;;;;;;;3.95;1.05;;;;;;;17.08;63.17;102020.63;5027086;28;20550;-66
2022/07/27 08:22:19;;;;;;;4.10;1.20;;;;;;;16.98;60.74;102019.63;5026892;28;20033;-65
2022/07/27 08:24:44;;;;;;;6.30;1.67;;;;;;;17.05;62.45;102016.22;5027279;28;20104;-66
2022/07/27 08:27:09;;;;;;;3.97;1.08;;;;;;;17.53;62.32;102007.72;5027085;28;20112;-66
2022/07/27 08:29:35;;;;;;;29.27;1.98;;;;;;;18.12;59.62;102011.06;5026593;28;20076;-68
2022/07/27 08:32:00;;;;;;;3.50;1.45;;;;;;;18.50;58.60;102004.97;5033806;28;20481;-66
2022/07/27 08:34:25;;;;;;;2.70;1.10;;;;;;;19.03;57.87;102000.25;5027115;28;20715;-66
2022/07/27 08:36:51;;;;;;;3.67;1.00;;;;;;;19.97;57.48;102009.13;4991580;28;1041770;-66
2022/07/27 08:39:16;;;;;;;3.28;1.00;;;;;;;19.97;51.06;102003.59;5028014;28;20433;-66
2022/07/27 08:41:43;;;;;;;5.32;1.10;;;;;;;19.74;50.37;101999.38;5028648;28;20447;-66
2022/07/27 08:44:12;;;;;;;4.07;0.90;;;;;;;19.95;52.30;102002.84;5044994;28;20025;-66
2022/07/27 08:46:39;;;;;;;1.67;0.90;;;;;;;20.42;53.03;101991.06;5037584;28;20043;-66
2022/07/27 08:49:06;;;;;;;2.42;0.93;;;;;;;20.79;51.78;102002.25;5027868;28;20040;-66
2022/07/27 08:51:33;;;;;;;3.13;1.05;;;;;;;20.95;45.87;101999.75;5042664;28;20030;-67
2022/07/27 08:54:00;;;;;;;1.58;0.93;;;;;;;20.48;43.55;101993.31;5028108;28;20060;-67
2022/07/27 08:56:26;;;;;;;4.32;0.93;;;;;;;20.05;44.89;102009.28;5028817;28;20491;-66
2022/07/27 08:58:52;;;;;;;3.17;0.80;;;;;;;20.54;48.85;101998.22;5027991;28;20037;-68
2022/07/27 09:01:18;;;;;;;2.55;0.90;;;;;;;20.99;47.25;102001.19;5027150;28;20504;-67
2022/07/27 09:03:43;;;;;;;1.00;0.57;;;;;;;21.11;43.83;101999.09;5044697;28;20037;-67
2022/07/27 09:06:08;;;;;;;3.28;1.05;;;;;;;20.97;43.52;102008.75;5047087;28;20048;-66
2022/07/27 09:08:37;;;;;;;2.15;0.70;;;;;;;21.30;48.13;102004.53;5047804;28;20029;-67
2022/07/27 09:11:13;;;;;;;2.70;0.90;;;;;;;21.51;44.90;102007.09;5035315;28;20458;-65
2022/07/27 09:13:38;;;;;;;5.10;0.80;;;;;;;21.80;43.72;101992.19;5029308;28;20487;-66
2022/07/27 09:16:07;;;;;;;5.45;1.27;;;;;;;21.64;43.65;101993.75;5026794;28;20033;-66
2022/07/27 09:18:35;;;;;;;2.90;0.80;;;;;;;21.55;46.64;102000.22;5027567;28;20045;-65
2022/07/27 09:21:19;;;;;;;6.82;0.95;;;;;;;22.03;47.74;102001.78;5026342;28;20037;-66
2022/07/27 09:23:48;;;;;;;3.92;0.93;;;;;;;23.05;44.85;101997.63;5027282;28;20033;-66
2022/07/27 09:26:25;;;;;;;5.07;0.90;;;;;;;23.38;43.09;102005.09;5027390;28;20029;-68
2022/07/27 09:29:11;;;;;;;3.67;0.75;;;;;;;22.72;40.87;102011.25;5025135;28;20029;-66
2022/07/27 09:31:42;;;;;;;4.00;1.45;;;;;;;21.79;42.77;102007.94;5040863;28;20041;-68
2022/07/27 09:34:09;;;;;;;2.60;0.80;;;;;;;21.77;45.18;102009.13;5035730;28;20071;-66
2022/07/27 09:36:49;;;;;;;4.43;0.90;;;;;;;21.84;45.25;102000.03;5041701;28;20394;-67
2022/07/27 09:39:18;;;;;;;3.05;1.10;;;;;;;21.77;43.98;102009.13;5026921;28;20041;-66
2022/07/27 09:41:47;;;;;;;3.47;0.80;;;;;;;21.32;41.72;102012.75;5027178;28;20548;-66
2022/07/27 09:44:13;;;;;;;2.42;0.90;;;;;;;20.81;45.22;102003.84;5024233;28;20414;-66
2022/07/27 09:46:41;;;;;;;5.15;1.02;;;;;;;21.09;47.69;102004.78;5026254;28;20251;-66
2022/07/27 09:49:25;;;;;;;5.03;1.10;;;;;;;21.31;47.54;102002.66;5026683;28;20040;-67
2022/07/27 09:51:51;;;;;;;4.05;1.17;;;;;;;21.84;43.34;101993.63;5026415;28;20869;-67
2022/07/27 09:54:17;;;;;;;2.92;1.20;;;;;;;22.31;41.42;101998.97;5026918;28;20029;-66
2022/07/27 09:56:43;;;;;;;6.78;1.23;;;;;;;22.41;42.14;102003.38;5026524;28;20038;-66
2022/07/27 09:59:17;;;;;;;5.28;1.20;;;;;;;22.35;44.37;102000.38;5023505;28;20041;-67
2022/07/27 10:01:42;;;;;;;6.88;1.15;;;;;;;21.81;45.95;101999.47;5025833;28;20130;-66
2022/07/27 10:04:08;;;;;;;2.67;1.10;;;;;;;21.69;47.60;102009.03;5026318;28;20752;-66
2022/07/27 10:06:34;;;;;;;2.92;0.88;;;;;;;21.61;47.74;101999.59;5026092;28;20049;-66
2022/07/27 10:09:00;;;;;;;2.05;1.00;;;;;;;21.60;46.08;102014.47;5026453;28;20386;-66
2022/07/27 10:11:27;;;;;;;3.17;1.20;;;;;;;21.69;48.40;102004.38;5041970;28;20044;-66
2022/07/27 10:13:54;;;;;;;4.30;1.13;;;;;;;21.98;47.51;102012.47;5028484;28;20485;-67
2022/07/27 10:16:23;;;;;;;2.92;1.10;;;;;;;22.31;45.37;102004.50;5026024;28;20033;-65
2022/07/27 10:19:07;;;;;;;1.95;1.10;;;;;;;22.58;44.94;101998.84;5025872;28;20473;-65
2022/07/27 10:21:34;;;;;;;3.90;1.20;;;;;;;23.10;41.38;101990.53;5025564;28;20440;-66
2022/07/27 10:24:09;;;;;;;8.00;1.20;;;;;;;23.67;46.18;102003.84;5026330;28;20076;-67
2022/07/27 10:26:35;;;;;;;3.50;1.27;;;;;;;23.72;38.17;101989.44;5026139;28;20083;-67
2022/07/27 10:29:04;;;;;;;6.82;1.20;;;;;;;23.53;39.79;101988.66;5022923;28;20724;-68
2022/07/27 10:31:38;;;;;;;3.88;1.50;;;;;;;23.92;42.75;101991.75;5025745;28;20033;-66
2022/07/27 10:34:05;;;;;;;4.93;1.25;;;;;;;23.58;42.66;101999.25;5025818;28;20041;-67
2022/07/27 10:36:31;;;;;;;4.00;1.30;;;;;;;23.31;45.02;101987.34;5025130;28;20053;-66
2022/07/27 10:39:02;;;;;;;3.50;1.50;;;;;;;23.11;43.29;101989.50;5026038;28;20033;-70
2022/07/27 10:41:39;;;;;;;9.32;1.40;;;;;;;23.01;46.17;101991.53;5026813;28;20056;-66
2022/07/27 10:44:26;;;;;;;3.67;1.40;;;;;;;23.45;46.25;101993.28;5033923;28;20043;-67
2022/07/27 10:47:01;;;;;;;2.97;1.10;;;;;;;23.59;45.12;101999.06;5034962;28;20396;-65
2022/07/27 10:49:28;;;;;;;3.05;1.20;;;;;;;23.54;44.65;101997.84;5034618;28;20056;-70
2022/07/27 10:51:56;;;;;;;3.05;1.33;;;;;;;23.25;45.73;101988.00;5034972;28;20048;-67
2022/07/27 10:54:37;;;;;;;5.47;1.15;;;;;;;22.99;44.40;101979.75;5033718;28;20086;-67
2022/07/27 10:57:05;;;;;;;3.88;1.25;;;;;;;22.80;45.31;101977.13;5034854;28;20069;-67
2022/07/27 10:59:37;;;;;;;5.70;1.30;;;;;;;22.64;45.25;101981.53;5024375;28;20146;-66
2022/07/27 11:02:04;;;;;;;7.00;1.60;;;;;;;22.58;46.13;101986.88;5024144;28;20366;-66
2022/07/27 11:04:31;;;;;;;4.38;1.17;;;;;;;22.56;46.24;101975.94;5036562;28;20060;-66
2022/07/27 11:07:00;;;;;;;3.35;1.45;;;;;;;22.27;44.93;101979.00;5029033;28;20034;-69
2022/07/27 11:09:40;;;;;;;5.18;1.10;;;;;;;22.40;47.72;101976.69;5037042;28;20171;-70
2022/07/27 11:12:07;;;;;;;5.63;1.00;;;;;;;22.49;46.55;101979.53;5042847;28;20036;-65
2022/07/27 11:14:53;;;;;;;1.65;0.90;;;;;;;22.49;46.63;101976.75;5025674;28;20053;-66
2022/07/27 11:17:27;;;;;;;3.30;1.23;;;;;;;22.24;46.53;101975.66;5038358;28;20030;-66
2022/07/27 11:19:58;;;;;;;4.72;1.17;;;;;;;22.41;46.79;101983.09;5038449;28;20757;-67
2022/07/27 11:22:34;;;;;;;3.23;1.20;;;;;;;22.60;45.30;101973.72;5039918;28;20079;-66
2022/07/27 11:25:00;;;;;;;2.20;1.15;;;;;;;22.62;45.58;101980.84;5026017;28;20049;-69
2022/07/27 11:27:26;;;;;;;5.15;1.40;;;;;;;22.49;43.19;101980.41;5038749;28;20045;-66